createdAt,value
2022-08-17T00:00:49.509Z,4.72
2022-08-17T00:05:56.602Z,4.80
2022-08-17T00:10:58.334Z,5.40
2022-08-17T00:16:01.474Z,4.88
2022-08-17T00:21:04.157Z,5.00
2022-08-17T00:26:12.415Z,5.10
2022-08-17T00:31:14.038Z,5.23
2022-08-17T00:36:16.252Z,5.22
2022-08-17T00:41:19.721Z,5.85
2022-08-17T00:46:28.346Z,5.50
2022-08-17T00:51:38.984Z,5.63
2022-08-17T00:56:42.633Z,5.65
2022-08-17T01:01:44.706Z,5.10
2022-08-17T01:06:49.288Z,4.78
2022-08-17T01:11:53.586Z,5.18
2022-08-17T01:16:55.796Z,5.53
2022-08-17T01:22:06.731Z,4.87
2022-08-17T01:27:10.454Z,5.43
2022-08-17T01:32:12.001Z,5.05
2022-08-17T01:37:14.639Z,4.83
2022-08-17T01:42:20.603Z,5.43
2022-08-17T01:47:22.058Z,5.60
2022-08-17T01:52:23.767Z,5.50
2022-08-17T01:57:25.554Z,5.72
2022-08-17T02:02:30.638Z,5.70
2022-08-17T02:07:32.878Z,5.20
2022-08-17T02:12:54.548Z,5.60
2022-08-17T02:17:56.023Z,5.20
2022-08-17T02:22:58.808Z,5.85
2022-08-17T02:28:00.276Z,5.80
2022-08-17T02:33:04.201Z,5.68
2022-08-17T02:38:07.787Z,5.25
2022-08-17T02:43:09.324Z,5.63
2022-08-17T02:48:10.722Z,5.55
2022-08-17T02:53:12.009Z,5.55
2022-08-17T02:58:13.511Z,6.00
2022-08-17T03:03:18.782Z,5.90
2022-08-17T03:08:20.104Z,5.55
2022-08-17T03:13:21.841Z,5.60
2022-08-17T03:18:24.954Z,5.70
2022-08-17T03:23:27.848Z,5.82
2022-08-17T03:28:31.047Z,5.68
2022-08-17T03:33:32.569Z,5.57
2022-08-17T03:38:39.342Z,6.10
2022-08-17T03:43:40.790Z,6.50
2022-08-17T03:49:17.565Z,5.60
2022-08-17T03:54:37.432Z,5.30
2022-08-17T03:59:38.776Z,5.80
2022-08-17T04:04:40.317Z,5.97
2022-08-17T04:09:42.836Z,5.43
2022-08-17T04:14:53.401Z,5.70
2022-08-17T04:19:55.625Z,5.80
2022-08-17T04:24:56.914Z,5.90
2022-08-17T04:30:00.348Z,6.15
2022-08-17T04:35:01.641Z,5.78
2022-08-17T04:40:22.049Z,6.00
2022-08-17T04:45:23.374Z,5.83
2022-08-17T04:50:25.429Z,5.93
2022-08-17T04:55:26.781Z,5.43
2022-08-17T05:00:28.093Z,5.33
2022-08-17T05:05:34.137Z,5.75
2022-08-17T05:10:37.379Z,5.50
2022-08-17T05:15:48.080Z,5.47
2022-08-17T05:20:49.940Z,6.03
2022-08-17T05:25:57.376Z,5.88
2022-08-17T05:31:01.187Z,5.57
2022-08-17T05:36:04.081Z,5.60
2022-08-17T05:41:06.809Z,6.70
2022-08-17T05:46:14.579Z,6.35
2022-08-17T05:51:37.751Z,6.07
2022-08-17T05:56:53.147Z,5.97
2022-08-17T06:02:13.350Z,6.10
2022-08-17T06:07:24.603Z,6.30
2022-08-17T06:12:25.850Z,5.78
2022-08-17T06:17:27.667Z,5.97
2022-08-17T06:22:41.198Z,5.77
2022-08-17T06:27:48.614Z,6.27
2022-08-17T06:32:56.537Z,5.65
2022-08-17T06:38:00.804Z,5.43
2022-08-17T06:43:07.102Z,5.10
2022-08-17T06:48:15.277Z,5.72
2022-08-17T06:53:29.298Z,6.30
2022-08-17T06:58:33.131Z,5.50
2022-08-17T07:03:43.761Z,6.30
2022-08-17T07:08:51.235Z,5.93
2022-08-17T07:14:01.958Z,6.43
2022-08-17T07:19:04.519Z,5.73
2022-08-17T07:24:08.822Z,5.88
2022-08-17T07:29:11.681Z,6.85
2022-08-17T07:34:14.662Z,6.00
2022-08-17T07:39:28.200Z,6.72
2022-08-17T07:44:29.561Z,6.35
2022-08-17T07:49:31.050Z,6.13
2022-08-17T07:54:42.343Z,5.78
2022-08-17T08:00:01.835Z,6.05
2022-08-17T08:05:10.036Z,6.20
2022-08-17T08:10:13.784Z,6.00
2022-08-17T08:15:25.650Z,7.15
2022-08-17T08:20:51.106Z,6.13
2022-08-17T08:25:56.967Z,6.07
2022-08-17T08:31:13.074Z,5.68
2022-08-17T08:37:12.793Z,6.05
2022-08-17T08:42:08.625Z,5.70
2022-08-17T08:47:28.649Z,5.53
2022-08-17T08:52:36.861Z,5.93
2022-08-17T08:57:43.903Z,6.00
2022-08-17T09:03:03.760Z,5.10
2022-08-17T09:08:11.294Z,5.30
2022-08-17T09:13:22.085Z,5.40
2022-08-17T09:19:02.231Z,5.23
2022-08-17T09:24:02.358Z,5.88
2022-08-17T09:29:07.211Z,5.57
2022-08-17T09:34:11.368Z,5.47
2022-08-17T09:39:15.683Z,5.15
2022-08-17T09:44:23.170Z,5.30
2022-08-17T09:49:40.405Z,5.13
2022-08-17T09:54:42.327Z,4.77
2022-08-17T10:00:12.767Z,5.75
2022-08-17T10:05:20.864Z,5.93
2022-08-17T10:10:25.824Z,5.17
2022-08-17T10:15:46.901Z,6.00
2022-08-17T10:21:25.035Z,6.25
2022-08-17T10:26:26.998Z,6.47
2022-08-17T10:31:45.481Z,6.80
2022-08-17T10:36:55.894Z,6.10
2022-08-17T10:42:00.443Z,5.60
2022-08-17T10:47:14.391Z,4.57
2022-08-17T10:52:27.772Z,4.65
2022-08-17T10:57:30.849Z,4.78
2022-08-17T11:02:45.668Z,4.87
2022-08-17T11:07:50.018Z,5.38
2022-08-17T11:13:01.044Z,5.15
2022-08-17T11:18:02.353Z,4.73
2022-08-17T11:23:23.798Z,5.13
2022-08-17T11:28:34.400Z,4.68
2022-08-17T11:33:36.851Z,5.00
2022-08-17T11:38:48.694Z,4.60
2022-08-17T11:43:58.170Z,4.70
2022-08-17T11:49:26.045Z,4.68
2022-08-17T11:54:33.333Z,4.77
2022-08-17T11:59:43.639Z,4.30
2022-08-17T12:05:02.365Z,4.40
2022-08-17T12:10:05.470Z,4.57
2022-08-17T12:15:11.793Z,4.35
2022-08-17T12:20:16.177Z,4.28
2022-08-17T12:25:21.907Z,4.20
2022-08-17T12:30:23.200Z,4.03
2022-08-17T12:35:24.519Z,4.28
2022-08-17T12:40:27.639Z,4.30
2022-08-17T12:45:34.153Z,4.63
2022-08-17T12:50:37.198Z,4.18
2022-08-17T12:55:38.876Z,4.70
2022-08-17T13:00:47.474Z,4.30
2022-08-17T13:05:52.156Z,5.57
2022-08-17T13:10:55.154Z,4.30
2022-08-17T13:15:57.652Z,4.17
2022-08-17T13:20:59.257Z,4.77
2022-08-17T13:26:05.387Z,4.88
2022-08-17T13:31:27.823Z,4.78
2022-08-17T13:36:30.508Z,4.90
2022-08-17T13:41:34.679Z,4.63
2022-08-17T13:46:35.958Z,4.78
2022-08-17T13:51:44.584Z,4.83
2022-08-17T13:56:51.233Z,4.43
2022-08-17T14:01:54.084Z,4.28
2022-08-17T14:06:57.736Z,4.60
2022-08-17T14:11:59.585Z,4.73
2022-08-17T14:17:00.939Z,4.00
2022-08-17T14:22:02.723Z,4.38
2022-08-17T14:27:05.090Z,4.10
2022-08-17T14:32:26.709Z,4.50
2022-08-17T14:37:28.645Z,4.13
2022-08-17T14:42:31.398Z,4.30
2022-08-17T14:47:33.053Z,4.63
2022-08-17T14:52:34.368Z,4.32
2022-08-17T14:57:35.704Z,4.97
2022-08-17T15:02:45.627Z,4.33
2022-08-17T15:07:47.030Z,5.03
2022-08-17T15:12:48.681Z,4.65
2022-08-17T15:17:51.548Z,4.70
2022-08-17T15:22:55.346Z,4.70
2022-08-17T15:27:57.225Z,4.50
2022-08-17T15:32:59.266Z,4.73
2022-08-17T15:38:10.667Z,4.55
2022-08-17T15:43:15.920Z,4.50
2022-08-17T15:48:18.554Z,4.20
2022-08-17T15:53:19.868Z,4.27
2022-08-17T15:58:21.196Z,4.22
2022-08-17T16:03:59.335Z,4.32
2022-08-17T16:08:57.474Z,4.23
2022-08-17T16:13:58.751Z,4.30
2022-08-17T16:19:00.386Z,4.07
2022-08-17T16:24:06.646Z,4.30
2022-08-17T16:29:15.055Z,4.55
2022-08-17T16:34:18.796Z,4.68
2022-08-17T16:39:20.217Z,4.67
2022-08-17T16:44:21.720Z,4.50
2022-08-17T16:49:35.841Z,4.70
2022-08-17T16:54:41.857Z,4.65
2022-08-17T16:59:47.940Z,4.90
2022-08-17T17:04:51.924Z,5.60
2022-08-17T17:09:55.443Z,4.40
2022-08-17T17:14:59.199Z,4.47
2022-08-17T17:20:06.013Z,4.47
2022-08-17T17:25:07.366Z,5.22
2022-08-17T17:30:11.058Z,5.50
2022-08-17T17:35:25.225Z,5.90
2022-08-17T17:40:36.869Z,5.90
2022-08-17T17:45:44.182Z,5.47
2022-08-17T17:50:51.623Z,5.13
2022-08-17T17:56:07.905Z,4.82
2022-08-17T18:01:37.931Z,5.03
2022-08-17T18:06:40.033Z,4.90
2022-08-17T18:11:51.390Z,5.00
2022-08-17T18:16:56.893Z,4.85
2022-08-17T18:22:07.376Z,5.63
2022-08-17T18:27:33.831Z,5.00
2022-08-17T18:32:36.645Z,4.90
2022-08-17T18:37:44.850Z,4.75
2022-08-17T18:42:46.249Z,4.73
2022-08-17T18:47:54.651Z,5.10
2022-08-17T18:53:15.926Z,4.60
2022-08-17T18:58:24.198Z,4.70
2022-08-17T19:03:26.413Z,4.90
2022-08-17T19:08:27.785Z,4.95
2022-08-17T19:13:31.918Z,4.70
2022-08-17T19:18:35.774Z,4.53
2022-08-17T19:23:39.907Z,4.47
2022-08-17T19:29:01.363Z,4.82
2022-08-17T19:34:02.873Z,4.50
2022-08-17T19:39:04.758Z,4.70
2022-08-17T19:44:15.089Z,4.85
2022-08-17T19:49:41.352Z,4.80
2022-08-17T19:54:55.462Z,4.88
2022-08-17T20:00:14.203Z,4.53
2022-08-17T20:05:23.875Z,4.70
2022-08-17T20:10:35.106Z,4.10
2022-08-17T20:15:39.192Z,4.60
2022-08-17T20:20:54.936Z,4.60
2022-08-17T20:26:00.042Z,4.60
2022-08-17T20:31:01.961Z,4.57
2022-08-17T20:36:06.442Z,4.90
2022-08-17T20:41:10.896Z,4.80
2022-08-17T20:46:24.380Z,4.90
2022-08-17T20:51:28.179Z,5.00
2022-08-17T20:56:44.722Z,5.30
2022-08-17T21:02:02.647Z,4.80
2022-08-17T21:07:24.471Z,4.63
2022-08-17T21:12:39.681Z,5.00
2022-08-17T21:17:48.378Z,4.83
2022-08-17T21:22:52.717Z,4.30
2022-08-17T21:28:17.977Z,5.20
2022-08-17T21:33:26.812Z,5.03
2022-08-17T21:38:36.181Z,4.72
2022-08-17T21:43:46.137Z,4.70
2022-08-17T21:48:49.236Z,4.63
2022-08-17T21:53:57.978Z,5.80
2022-08-17T21:59:01.395Z,4.90
2022-08-17T22:04:03.811Z,4.50
2022-08-17T22:09:11.577Z,3.83
2022-08-17T22:14:16.901Z,4.20
2022-08-17T22:19:20.149Z,4.22
2022-08-17T22:24:22.564Z,3.77
2022-08-17T22:29:42.711Z,3.63
2022-08-17T22:34:44.029Z,3.78
2022-08-17T22:39:45.365Z,3.87
2022-08-17T22:44:48.520Z,3.40
2022-08-17T22:49:57.670Z,4.22
2022-08-17T22:55:26.797Z,4.13
2022-08-17T23:00:28.135Z,3.90
2022-08-17T23:05:29.432Z,4.00
2022-08-17T23:10:30.697Z,3.75
2022-08-17T23:15:33.715Z,3.80
2022-08-17T23:20:36.250Z,4.30
2022-08-17T23:25:37.575Z,4.18
2022-08-17T23:30:40.927Z,3.97
2022-08-17T23:35:43.869Z,4.17
2022-08-17T23:40:45.174Z,4.13
2022-08-17T23:45:46.827Z,4.38
2022-08-17T23:50:49.107Z,4.47
2022-08-17T23:56:07.008Z,4.28
